首页
METAR-TAF:

METAR-TAF

机场 :

賓漢頓, 紐約州, 美国

纬度: 42-12-28N, 经度: 075-58-53W, 海拔: 496米

当前天气观测

该预报发布于16分钟前的19:11 UTC
风速11节,风向西北,有时为19节阵风
温度 -3°C
湿度 68%
气压 1024 hPa
能見度: 2.8公里
少量云层高于2200英尺
多云层高于3900英尺
阴天层高于5000英尺
小雪

METAR: KBGM 191911Z 31011G19KT 1 3/4SM -SN FEW022 BKN039 OVC050 M03/M08 A3024 RMK AO2 SNE1859B07 P0000 T10281078

时间: 14:27 (19:27 UTC)

预报

该预报发布于2小时和1分钟前的17:26 UTC
预报有效从19日的 18点(UTC)到 20日的 18点(UTC)
风速12节,风向西北,有时为20节阵风
能見度: 9.7公里
散云层高于3000英尺
多云层高于4500英尺
小阵雪
短暂存在
从 19日的 19点(UTC)到 19日的 21点(UTC)
能見度: 4.8公里
多云层高于2500英尺
小阵雪, 轻雾
从 20日的 0300点(UTC)
风速9节,风向西转西北
能見度: 10公里
散云层高于3500英尺
从 20日的 1500点(UTC)
风速8节,风向西北
能見度: 10公里
多云层高于4000英尺
小阵雪

TAF: KBGM 191726Z 1918/2018 32012G20KT 6SM -SHSN SCT030 BKN045 TEMPO 1919/1921 3SM -SHSN BR BKN025 FM200300 29009KT P6SM SCT035 FM201500 31008KT P6SM -SHSN BKN040

超过4000个机场的气象观测和天气预报(METAR&TAF报告)。

可查询的气象台以黄色和红色小点在地图上表示。

将鼠标移到小点上方,可查看气象台名称。

然后点击查看天气观测和预报。

如需切换地图:点击带黑十字的绿色按钮放大地图;点击带横线的绿色按钮缩小地图;或者点击绿色箭头查看邻近地区的地图。


METAR-TAF: